Relevés horaires Bouveret (Suisse)


Relevés horaires à Bouveret - Mercredi 04 Avr. 2018
Heure UTC1 Température [°C] Vent [km/h] Hum. [%] Pres.4 [hPa] Visi. [Km] Nébu. [octa] Préc.5 [mm] Cond.
2m. Res. Ros. Dir.2 Vit. Moy. Raf.3
23:00 7.6 4.7 5.4 SE 16.7 -- 46.3 86 1013.7(-0.2/3h) -- -- -- --
22:00 9.3 5.8 4.9 SSE 27.8 -- 55.6 74 1012.8(1.8/3h) -- -- -- --
21:00 8.5 4.9 7.0 SSE 25.9 -- 51.9 90 1013.5(3.7/3h) -- -- -- --
20:00 8.0 5.5 6.6 N 14.8 -- 29.6 91 1013.9(3.8/3h) -- -- -- --
19:00 9.8 6.8 4.6 SSE 24.1 -- 51.9 70 1010.9(-0.6/3h) -- -- -- --
18:00 9.9 6 4.2 SSE 37.0 -- 74.1 68 1009.4(-2.0/3h) -- -- -- --
17:00 8.8 4.1 5.8 SSE 44.4 -- 70.4 81 1009.8(-1.6/3h) -- -- -- --
16:00 8.8 5.6 6.8 SSE 22.2 -- 35.2 87 1011.7(1.0/3h) -- -- -- --
15:00 8.7 8.1 7.1 SE 5.6 -- 33.3 90 1011.7(3.3/3h) -- -- -- --
14:00 9.2 8.2 6.8 SSE 7.4 -- 29.6 85 1011.4(4.9/3h) -- -- -- --
13:00 8.5 5.4 5.9 NO 20.4 -- 33.3 84 1010.7(4.2/3h) -- -- -- --
12:00 10.3 7.9 5.5 NNO 18.5 -- 53.7 72 1008(1.8/3h) -- -- -- --
11:00 10.0 9.6 5.5 N 5.6 -- 20.4 74 1006.1(0.7/3h) -- -- -- --
10:00 10.1 9.7 5.7 ENE 5.6 -- 22.2 74 1006(0.1/3h) -- -- -- --
09:00 9.3 6.8 5.1 ONO 16.7 -- 53.7 75 1006.2(-0.1/3h) -- -- -- --
08:00 9.1 5.2 5.6 O 33.3 -- 48.2 79 1005.5(-1.3/3h) -- -- -- --
08:00 9.1 5.2 5.6 O 33.3 -- 48.2 79 1005.5(-1.3/3h) -- -- -- --
07:00 9.5 8.2 4.8 NO 9.3 -- 20.4 72 1006(-0.9/3h) -- -- -- --
07:00 9.5 8.2 4.8 NO 9.3 -- 20.4 72 1006(-0.9/3h) -- -- -- --
06:00 8.7 6.9 5.1 O 11.1 -- 27.8 78 1006.4(-1.5/3h) -- -- -- --
06:00 8.7 6.9 5.1 O 11.1 -- 27.8 78 1006.4(-1.5/3h) -- -- -- --
05:00 8.6 6.2 5.4 O 14.8 -- 24.1 80 1007(-1.0/3h) -- -- -- --
04:00 7.2 7.2 5.0 N 1.9 -- 11.1 86 1007.3(-0.7/3h) -- -- -- --
03:00 7.5 6.7 5.6 S 5.6 -- 18.5 88 1008.2(-0.1/3h) -- -- -- --

1 Coordinated Universal Time. Actuellement il est 23:00 locale et 21:00 UTC.

2 Le vent souffle depuis la direction indiquée vers la direction oposée.

3 Les rafales max. sont disponible 40 min après l'heure du relevé.

4 Pour les stations d'altitude (plus de 600m) le géopotentiel du niveau le plus proche de la pression obligatoire est indiqué.

5 Les stations disposant d'un diffuseur peuvent indiquer "trace". Cela signifie que des précipitations ont touchés le sol mais que la quantité est inférieure à 0.1 mm.

Copyright

Les données affichées sur cette page sont la propriété exclusive de Météo Suisse.

Récapitulatif de la journée
Température [°C] Vent [km/h] Ensoleillement4 [h] Precipitations totale5 [mm] Pression [Hpa]
Min1 Max.2 Moy.3 Max. Min Max.
7.1 11.3 0 74.1 0 h 0 min 0 1005.5 1013.9

1 Température minimale relevée entre 18:00 UTC la veille et 18:00 UTC le jour donné.

2 Température maximale relevée entre 06:00 UTC le jour donné et 06:00 UTC le lendemain.

3 Vent moyen de la journée basé sur les relevés horaires.

4 Ensoleillement en heures relevé entre 06:00 UTC la veille et 06:00 UTC le jour donné.

5 Précipitations totales tombées entre 06:00 UTC la jour donné et 06:00 UTC le lendemain.

Graphiques horaires